Time;durP1;ratioP1;P1;durP2;ratioP2;P2;SDS_P1;SDS_P2;PMS_P1;PMS_P2;Temp;Humidity;BMP_temperature;BMP_pressure;BME280_temperature;BME280_humidity;BME280_pressure;Samples;Min_cycle;Max_cycle;Signal;HPM_P1;HPM_P2
2023/06/26 00:01:50;;;;;;;;;;;;;;;26.20;57.11;101145.25;5217679;28;20020;-68
2023/06/26 00:04:21;;;;;;;;;;;;;;;26.17;57.22;101140.31;5219734;28;19931;-69
2023/06/26 00:06:52;;;;;;;;;;;;;;;26.13;55.07;101138.31;5219249;28;19917;-68
2023/06/26 00:09:23;;;;;;;;;;;;;;;26.12;57.99;101136.69;5208902;28;20396;-68
2023/06/26 00:11:54;;;;;;;;;;;;;;;26.08;57.98;101138.19;5211944;28;20297;-68
2023/06/26 00:14:26;;;;;;;;;;;;;;;26.05;57.56;101142.13;5218248;28;19924;-68
2023/06/26 00:16:57;;;;;;;;;;;;;;;26.03;57.19;101135.38;5214579;28;19917;-68
2023/06/26 00:19:28;;;;;;;;;;;;;;;25.99;57.91;101131.47;5221803;28;19961;-68
2023/06/26 00:21:59;;;;;;;;;;;;;;;25.93;58.61;101136.69;5220760;28;19926;-68
2023/06/26 00:24:31;;;;;;;;;;;;;;;25.91;57.80;101132.59;5216269;28;19956;-68
2023/06/26 00:27:02;;;;;;;;;;;;;;;25.88;58.65;101135.75;5213572;28;19925;-68
2023/06/26 00:29:33;;;;;;;;;;;;;;;25.81;58.45;101133.13;5221985;28;20004;-68
2023/06/26 00:32:05;;;;;;;;;;;;;;;25.77;57.38;101134.59;5216870;28;19913;-68
2023/06/26 00:34:36;;;;;;;;;;;;;;;25.72;58.38;101135.28;5217059;28;19928;-68
2023/06/26 00:37:07;;;;;;;;;;;;;;;25.67;59.85;101126.22;5216614;28;19921;-65
2023/06/26 00:39:38;;;;;;;;;;;;;;;25.61;59.39;101135.16;5216373;28;19913;-68
2023/06/26 00:42:10;;;;;;;;;;;;;;;25.55;58.89;101130.69;5219317;28;20435;-68
2023/06/26 00:44:41;;;;;;;;;;;;;;;25.51;59.22;101130.31;5213813;28;20282;-68
2023/06/26 00:47:14;;;;;;;;;;;;;;;25.48;59.88;101134.25;5214367;28;19927;-69
2023/06/26 00:49:45;;;;;;;;;;;;;;;25.43;61.04;101131.44;5217347;28;19920;-68
2023/06/26 00:52:17;;;;;;;;;;;;;;;25.35;62.99;101139.78;5215630;28;20284;-68
2023/06/26 00:54:48;;;;;;;;;;;;;;;25.30;60.61;101136.91;5221817;28;19960;-68
2023/06/26 00:57:19;;;;;;;;;;;;;;;25.27;60.94;101139.22;5211166;28;19921;-66
2023/06/26 00:59:50;;;;;;;;;;;;;;;25.11;62.37;101136.03;5215808;28;19913;-67
2023/06/26 01:02:22;;;;;;;;;;;;;;;25.10;62.70;101147.81;5214210;28;19917;-69
2023/06/26 01:04:53;;;;;;;;;;;;;;;25.04;62.04;101146.00;5219088;28;19913;-69
2023/06/26 01:07:24;;;;;;;;;;;;;;;24.96;64.52;101146.25;5214197;28;19949;-69
2023/06/26 01:09:55;;;;;;;;;;;;;;;24.94;63.46;101148.34;5215459;28;19921;-69
2023/06/26 01:12:27;;;;;;;;;;;;;;;24.90;62.89;101155.97;5220228;28;19963;-66
2023/06/26 01:14:59;;;;;;;;;;;;;;;24.88;62.29;101151.88;5218781;28;19940;-69
2023/06/26 01:17:31;;;;;;;;;;;;;;;24.87;63.14;101151.06;5220013;28;19924;-69
2023/06/26 01:20:06;;;;;;;;;;;;;;;24.86;61.96;101156.66;5220685;28;20007;-69
2023/06/26 01:23:02;;;;;;;;;;;;;;;24.82;63.43;101156.25;5214556;28;20389;-69
2023/06/26 01:25:57;;;;;;;;;;;;;;;24.76;62.32;101165.16;5219073;28;20407;-69
2023/06/26 01:28:28;;;;;;;;;;;;;;;24.70;63.39;101163.31;5180252;28;20004;-69
2023/06/26 01:31:00;;;;;;;;;;;;;;;24.64;64.89;101172.25;5220072;28;19928;-69
2023/06/26 01:33:32;;;;;;;;;;;;;;;24.62;62.61;101171.63;5220158;28;20215;-69
2023/06/26 01:36:03;;;;;;;;;;;;;;;24.57;62.98;101166.09;5220666;28;19986;-69
2023/06/26 01:38:34;;;;;;;;;;;;;;;24.51;64.82;101162.44;5225116;28;20004;-69
2023/06/26 01:41:06;;;;;;;;;;;;;;;24.48;63.87;101166.34;5225593;28;20398;-69
2023/06/26 01:43:37;;;;;;;;;;;;;;;24.41;65.95;101170.09;5224903;28;19920;-66
2023/06/26 01:46:11;;;;;;;;;;;;;;;24.28;65.17;101171.78;5223003;28;19917;-67
2023/06/26 01:48:53;;;;;;;;;;;;;;;24.18;65.83;101179.44;5220403;28;19932;-69
2023/06/26 01:51:29;;;;;;;;;;;;;;;24.17;65.10;101184.97;5221612;28;20380;-68
2023/06/26 01:54:01;;;;;;;;;;;;;;;24.12;64.09;101187.47;5220453;28;19956;-66
2023/06/26 01:56:32;;;;;;;;;;;;;;;24.03;66.12;101187.72;5215566;28;20565;-69
2023/06/26 01:59:05;;;;;;;;;;;;;;;24.06;62.94;101199.03;5215826;28;20374;-68
2023/06/26 02:01:37;;;;;;;;;;;;;;;24.02;65.97;101201.31;5218655;28;19917;-67
2023/06/26 02:04:08;;;;;;;;;;;;;;;23.95;65.19;101193.28;5221765;28;20420;-70
2023/06/26 02:06:39;;;;;;;;;;;;;;;23.94;62.59;101198.84;5215759;28;19983;-70
2023/06/26 02:09:10;;;;;;;;;;;;;;;23.86;64.89;101199.88;5220696;28;19917;-68
2023/06/26 02:11:41;;;;;;;;;;;;;;;23.83;64.10;101194.97;5222081;28;19917;-70
2023/06/26 02:14:13;;;;;;;;;;;;;;;23.81;65.32;101190.84;5219956;28;19921;-69
2023/06/26 02:16:44;;;;;;;;;;;;;;;23.80;63.80;101190.03;5219905;28;19924;-68
2023/06/26 02:19:21;;;;;;;;;;;;;;;23.73;64.20;101195.41;5220017;28;20458;-69
2023/06/26 02:21:52;;;;;;;;;;;;;;;23.67;65.44;101190.03;5220418;28;19909;-69
2023/06/26 02:24:23;;;;;;;;;;;;;;;23.64;63.97;101191.28;5220765;28;19917;-70
2023/06/26 02:26:54;;;;;;;;;;;;;;;23.57;66.16;101197.66;5221723;28;19924;-69
2023/06/26 02:29:26;;;;;;;;;;;;;;;23.49;66.38;101199.53;5217314;28;19917;-69
2023/06/26 02:31:57;;;;;;;;;;;;;;;23.44;65.75;101196.63;5216642;28;19931;-69
2023/06/26 02:34:28;;;;;;;;;;;;;;;23.43;64.84;101199.50;5222746;28;19962;-69
2023/06/26 02:37:00;;;;;;;;;;;;;;;23.34;66.99;101206.09;5220434;28;20144;-67
2023/06/26 02:39:31;;;;;;;;;;;;;;;23.28;66.09;101207.72;5221800;28;20286;-67
2023/06/26 02:42:02;;;;;;;;;;;;;;;23.19;66.44;101206.31;5219847;28;19922;-69
2023/06/26 02:44:33;;;;;;;;;;;;;;;23.19;65.94;101209.78;5219019;28;20008;-68
2023/06/26 02:47:05;;;;;;;;;;;;;;;23.17;65.58;101198.47;5218154;28;20186;-68
2023/06/26 02:49:36;;;;;;;;;;;;;;;23.16;65.50;101212.06;5220937;28;19925;-69
2023/06/26 02:52:07;;;;;;;;;;;;;;;23.12;64.89;101225.00;5215918;28;20370;-68
2023/06/26 02:54:38;;;;;;;;;;;;;;;23.11;64.50;101231.38;5220876;28;20407;-69
2023/06/26 02:57:09;;;;;;;;;;;;;;;23.02;67.16;101238.75;5220187;28;19916;-67
2023/06/26 02:59:41;;;;;;;;;;;;;;;22.95;67.83;101237.91;5216690;28;19917;-69
2023/06/26 03:02:12;;;;;;;;;;;;;;;22.92;67.51;101240.16;5216629;28;19971;-69
2023/06/26 03:04:43;;;;;;;;;;;;;;;22.90;67.99;101240.34;5223791;28;20004;-68
2023/06/26 03:07:14;;;;;;;;;;;;;;;22.82;67.99;101240.53;5220834;28;19917;-70
2023/06/26 03:09:45;;;;;;;;;;;;;;;22.78;70.70;101240.09;5216588;28;19917;-68
2023/06/26 03:12:16;;;;;;;;;;;;;;;22.74;72.55;101244.19;5220038;28;19918;-69
2023/06/26 03:14:48;;;;;;;;;;;;;;;22.68;72.95;101241.50;5226007;28;20297;-67
2023/06/26 03:17:19;;;;;;;;;;;;;;;22.65;74.82;101252.56;5216052;28;20102;-70
2023/06/26 03:19:50;;;;;;;;;;;;;;;22.59;74.47;101246.19;5210688;28;19918;-69
2023/06/26 03:22:21;;;;;;;;;;;;;;;22.61;71.38;101249.47;5219459;28;19932;-69
2023/06/26 03:24:52;;;;;;;;;;;;;;;22.58;74.14;101242.72;5217213;28;19913;-69
2023/06/26 03:27:24;;;;;;;;;;;;;;;22.55;77.04;101244.94;5212189;28;20247;-69
2023/06/26 03:29:55;;;;;;;;;;;;;;;22.53;75.91;101247.81;5218100;28;19920;-68
2023/06/26 03:32:26;;;;;;;;;;;;;;;22.52;78.44;101248.84;5219010;28;19925;-69
2023/06/26 03:34:57;;;;;;;;;;;;;;;22.52;75.29;101251.50;5219960;28;20259;-69
2023/06/26 03:37:28;;;;;;;;;;;;;;;22.53;73.93;101245.13;5218464;28;19921;-69
2023/06/26 03:39:59;;;;;;;;;;;;;;;22.53;75.78;101244.31;5218142;28;19968;-68
2023/06/26 03:42:31;;;;;;;;;;;;;;;22.53;77.31;101249.66;5220411;28;19917;-69
2023/06/26 03:45:02;;;;;;;;;;;;;;;22.52;76.16;101245.34;5214628;28;20371;-69
2023/06/26 03:47:33;;;;;;;;;;;;;;;22.51;75.34;101247.19;5217342;28;19921;-68
2023/06/26 03:50:05;;;;;;;;;;;;;;;22.48;81.10;101249.44;5212767;28;19922;-69
2023/06/26 03:52:36;;;;;;;;;;;;;;;22.41;82.32;101252.06;5219398;28;19986;-66
2023/06/26 03:55:07;;;;;;;;;;;;;;;22.36;82.80;101254.50;5221307;28;19943;-67
2023/06/26 03:57:38;;;;;;;;;;;;;;;22.36;84.38;101259.03;5219437;28;20438;-67
2023/06/26 04:00:13;;;;;;;;;;;;;;;22.36;84.08;101262.53;5218503;28;19921;-66
2023/06/26 04:02:44;;;;;;;;;;;;;;;22.29;87.56;101267.00;5212769;28;19924;-68
2023/06/26 04:05:17;;;;;;;;;;;;;;;22.32;84.29;101266.63;5219613;28;19921;-67
2023/06/26 04:07:52;;;;;;;;;;;;;;;22.31;82.84;101276.47;5216298;28;19909;-69
2023/06/26 04:10:23;;;;;;;;;;;;;;;22.35;86.07;101279.56;5217748;28;20001;-69
2023/06/26 04:12:54;;;;;;;;;;;;;;;22.37;88.85;101284.69;5217483;28;19946;-69
2023/06/26 04:15:25;;;;;;;;;;;;;;;22.38;88.21;101289.84;5214500;28;20590;-68
2023/06/26 04:17:56;;;;;;;;;;;;;;;22.39;88.13;101293.31;5212321;28;19913;-67
2023/06/26 04:20:27;;;;;;;;;;;;;;;22.41;86.40;101293.97;5218847;28;19966;-69
2023/06/26 04:22:58;;;;;;;;;;;;;;;22.42;90.06;101292.94;5197036;28;19917;-69
2023/06/26 04:25:30;;;;;;;;;;;;;;;22.44;88.32;101294.41;5220934;28;19921;-69
2023/06/26 04:28:01;;;;;;;;;;;;;;;22.47;92.15;101291.34;5221463;28;19913;-69
2023/06/26 04:30:32;;;;;;;;;;;;;;;22.48;92.77;101290.31;5222166;28;19920;-69
2023/06/26 04:33:03;;;;;;;;;;;;;;;22.51;90.42;101297.09;5218284;28;19925;-67
2023/06/26 04:35:36;;;;;;;;;;;;;;;22.55;93.21;101295.69;5212811;28;20367;-69
2023/06/26 04:38:09;;;;;;;;;;;;;;;22.54;96.19;101300.22;5219612;28;20000;-68
2023/06/26 04:40:40;;;;;;;;;;;;;;;22.57;86.48;101305.13;5218340;28;19952;-68
2023/06/26 04:43:12;;;;;;;;;;;;;;;22.57;94.36;101305.13;5217562;28;19963;-69
2023/06/26 04:45:43;;;;;;;;;;;;;;;22.55;95.45;101312.53;5221237;28;20290;-69
2023/06/26 04:48:14;;;;;;;;;;;;;;;22.52;97.17;101315.59;5208699;28;20097;-69
2023/06/26 04:50:52;;;;;;;;;;;;;;;22.48;100.00;101325.03;5218241;28;20559;-68
2023/06/26 04:53:23;;;;;;;;;;;;;;;22.43;100.00;101314.13;5215430;28;19925;-68
2023/06/26 04:55:55;;;;;;;;;;;;;;;22.40;100.00;101327.84;5221063;28;19943;-69
2023/06/26 04:58:26;;;;;;;;;;;;;;;22.43;99.80;101323.97;5212229;28;21037;-66
2023/06/26 05:00:58;;;;;;;;;;;;;;;22.42;100.00;101324.97;5218858;28;20084;-69
2023/06/26 05:03:29;;;;;;;;;;;;;;;22.41;100.00;101320.66;5219608;28;20310;-66
2023/06/26 05:06:00;;;;;;;;;;;;;;;22.42;99.62;101322.31;5216199;28;19924;-68
2023/06/26 05:08:32;;;;;;;;;;;;;;;22.45;100.00;101333.41;5213071;28;20017;-67
2023/06/26 05:11:03;;;;;;;;;;;;;;;22.47;100.00;101336.72;5210379;28;19924;-66
2023/06/26 05:13:34;;;;;;;;;;;;;;;22.45;100.00;101330.75;5215329;28;20389;-69
2023/06/26 05:16:05;;;;;;;;;;;;;;;22.41;100.00;101334.84;5210564;28;19917;-68
2023/06/26 05:18:36;;;;;;;;;;;;;;;22.44;100.00;101336.28;5212383;28;19921;-69
2023/06/26 05:21:08;;;;;;;;;;;;;;;22.43;100.00;101343.47;5219281;28;19964;-67
2023/06/26 05:23:39;;;;;;;;;;;;;;;22.45;100.00;101345.94;5214491;28;19917;-69
2023/06/26 05:26:11;;;;;;;;;;;;;;;22.44;100.00;101354.97;5214699;28;19921;-69
2023/06/26 05:28:44;;;;;;;;;;;;;;;22.46;100.00;101361.75;5213411;28;19921;-68
2023/06/26 05:31:15;;;;;;;;;;;;;;;22.51;100.00;101362.00;5211615;28;20343;-69
2023/06/26 05:33:47;;;;;;;;;;;;;;;22.51;100.00;101353.19;5209211;28;20330;-68
2023/06/26 05:36:18;;;;;;;;;;;;;;;22.56;96.66;101362.25;5212596;28;19923;-68
2023/06/26 05:38:50;;;;;;;;;;;;;;;22.57;94.30;101363.06;5214584;28;19928;-69
2023/06/26 05:41:21;;;;;;;;;;;;;;;22.61;94.37;101361.63;5218202;28;20418;-68
2023/06/26 05:43:54;;;;;;;;;;;;;;;22.53;97.84;101373.31;5208716;28;20016;-69
2023/06/26 05:46:25;;;;;;;;;;;;;;;22.52;91.61;101369.00;5216432;28;19924;-69
2023/06/26 05:48:56;;;;;;;;;;;;;;;22.54;97.06;101380.31;5217860;28;19917;-69
2023/06/26 05:51:28;;;;;;;;;;;;;;;22.56;94.60;101380.09;5216987;28;19916;-69
2023/06/26 05:53:59;;;;;;;;;;;;;;;22.54;93.16;101379.47;5209657;28;19921;-69
2023/06/26 05:56:30;;;;;;;;;;;;;;;22.53;92.09;101381.31;5212302;28;19979;-69
2023/06/26 05:59:02;;;;;;;;;;;;;;;22.50;92.52;101394.22;5216834;28;20376;-69
2023/06/26 06:01:35;;;;;;;;;;;;;;;22.57;91.35;101395.09;5215398;28;20430;-70
2023/06/26 06:04:06;;;;;;;;;;;;;;;22.58;89.59;101397.59;5219233;28;19913;-69
2023/06/26 06:06:37;;;;;;;;;;;;;;;22.59;89.51;101401.09;5215971;28;19921;-69
2023/06/26 06:09:08;;;;;;;;;;;;;;;22.63;88.41;101399.69;5218244;28;20010;-68
2023/06/26 06:11:40;;;;;;;;;;;;;;;22.67;88.90;101405.44;5216311;28;19921;-69
2023/06/26 06:14:11;;;;;;;;;;;;;;;22.76;88.46;101407.75;5218016;28;19921;-69
2023/06/26 06:16:42;;;;;;;;;;;;;;;22.81;86.87;101409.84;5219106;28;19917;-69
2023/06/26 06:19:13;;;;;;;;;;;;;;;22.84;85.07;101404.09;5222940;28;20012;-68
2023/06/26 06:21:44;;;;;;;;;;;;;;;22.81;83.54;101417.88;5222981;28;20675;-69
2023/06/26 06:24:16;;;;;;;;;;;;;;;22.89;81.54;101433.75;5224430;28;19957;-69
2023/06/26 06:26:47;;;;;;;;;;;;;;;22.86;81.33;101426.09;5215542;28;19920;-69
2023/06/26 06:29:19;;;;;;;;;;;;;;;23.00;81.37;101427.88;5216633;28;20425;-69
2023/06/26 06:31:51;;;;;;;;;;;;;;;23.11;79.14;101422.97;5215097;28;19924;-69
2023/06/26 06:34:23;;;;;;;;;;;;;;;23.24;79.75;101420.38;5210466;28;20278;-69
2023/06/26 06:36:54;;;;;;;;;;;;;;;23.34;78.60;101423.50;5213646;28;19917;-68
2023/06/26 06:39:25;;;;;;;;;;;;;;;23.42;75.95;101433.19;5220497;28;19927;-69
2023/06/26 06:41:56;;;;;;;;;;;;;;;23.47;76.11;101439.56;5221396;28;19913;-68
2023/06/26 06:44:27;;;;;;;;;;;;;;;23.56;74.56;101437.53;5214580;28;19944;-69
2023/06/26 06:46:58;;;;;;;;;;;;;;;23.65;75.46;101449.72;5215454;28;20008;-69
2023/06/26 06:49:30;;;;;;;;;;;;;;;23.79;75.72;101456.78;5220473;28;19925;-69
2023/06/26 06:52:01;;;;;;;;;;;;;;;23.91;74.35;101457.00;5220272;28;19955;-69
2023/06/26 06:54:50;;;;;;;;;;;;;;;24.00;72.28;101457.63;5216320;28;19943;-70
2023/06/26 06:57:21;;;;;;;;;;;;;;;23.96;70.78;101459.06;5214408;28;19956;-69
2023/06/26 06:59:53;;;;;;;;;;;;;;;24.09;70.78;101467.09;5217826;28;20208;-69
2023/06/26 07:02:24;;;;;;;;;;;;;;;24.10;69.81;101471.44;5216820;28;19917;-68
2023/06/26 07:04:55;;;;;;;;;;;;;;;24.19;70.00;101477.44;5222111;28;20011;-69
2023/06/26 07:07:28;;;;;;;;;;;;;;;24.29;69.90;101469.81;5217308;28;19925;-68
2023/06/26 07:10:03;;;;;;;;;;;;;;;24.35;68.78;101485.03;5212684;28;20385;-68
2023/06/26 07:12:34;;;;;;;;;;;;;;;24.52;68.51;101485.50;5220212;28;19921;-68
2023/06/26 07:15:06;;;;;;;;;;;;;;;24.54;67.81;101482.59;5223563;28;20320;-70
2023/06/26 07:17:38;;;;;;;;;;;;;;;24.48;65.87;101478.91;5214990;28;19962;-70
2023/06/26 07:20:14;;;;;;;;;;;;;;;24.56;66.21;101489.41;5214601;28;20004;-69
2023/06/26 07:22:46;;;;;;;;;;;;;;;24.47;66.07;101504.03;5216440;28;20468;-70
2023/06/26 07:25:18;;;;;;;;;;;;;;;24.46;66.15;101494.34;5221428;28;19999;-69
2023/06/26 07:27:49;;;;;;;;;;;;;;;24.50;66.41;101499.09;5221034;28;19917;-69
2023/06/26 07:30:20;;;;;;;;;;;;;;;24.43;66.66;101506.28;5226106;28;19920;-70
2023/06/26 07:32:51;;;;;;;;;;;;;;;24.50;66.44;101509.81;5214520;28;20370;-69
2023/06/26 07:35:22;;;;;;;;;;;;;;;24.60;65.71;101516.63;5220271;28;19909;-69
2023/06/26 07:37:54;;;;;;;;;;;;;;;24.63;65.37;101524.25;5224116;28;19924;-69
2023/06/26 07:40:25;;;;;;;;;;;;;;;24.66;64.34;101515.78;5222702;28;19940;-69
2023/06/26 07:42:58;;;;;;;;;;;;;;;24.75;63.62;101531.44;5219650;28;20364;-69
2023/06/26 07:45:29;;;;;;;;;;;;;;;24.80;63.33;101528.13;5217583;28;20355;-69
2023/06/26 07:48:00;;;;;;;;;;;;;;;24.81;61.54;101527.09;5215057;28;19932;-69
2023/06/26 07:50:31;;;;;;;;;;;;;;;24.89;61.17;101526.06;5214958;28;19917;-70
2023/06/26 07:53:02;;;;;;;;;;;;;;;24.94;59.28;101539.69;5219010;28;19935;-70
2023/06/26 07:55:34;;;;;;;;;;;;;;;24.88;59.02;101535.97;5217123;28;20223;-70
2023/06/26 07:58:07;;;;;;;;;;;;;;;24.96;60.08;101548.31;5216913;28;20273;-69
2023/06/26 08:00:38;;;;;;;;;;;;;;;25.02;58.39;101536.78;5213139;28;20150;-69
2023/06/26 08:03:09;;;;;;;;;;;;;;;25.05;55.22;101544.41;5216276;28;20317;-69
2023/06/26 08:05:40;;;;;;;;;;;;;;;25.10;54.85;101544.63;5221053;28;19986;-70
2023/06/26 08:08:12;;;;;;;;;;;;;;;24.99;52.85;101545.22;5218044;28;19913;-70
2023/06/26 08:10:43;;;;;;;;;;;;;;;24.89;49.57;101553.72;5216714;28;19929;-69
2023/06/26 08:13:14;;;;;;;;;;;;;;;24.70;50.07;101563.41;5222659;28;19921;-69
2023/06/26 08:15:45;;;;;;;;;;;;;;;24.67;50.34;101574.53;5219303;28;19917;-68
2023/06/26 08:18:18;;;;;;;;;;;;;;;24.71;50.51;101564.22;5218955;28;20007;-69
2023/06/26 08:20:49;;;;;;;;;;;;;;;24.76;50.64;101556.38;5220776;28;19921;-69
2023/06/26 08:23:21;;;;;;;;;;;;;;;24.78;50.34;101558.88;5211641;28;19963;-69
2023/06/26 08:25:52;;;;;;;;;;;;;;;24.86;49.79;101562.16;5216295;28;19987;-68
2023/06/26 08:28:24;;;;;;;;;;;;;;;24.97;48.41;101561.53;5218168;28;19993;-70
2023/06/26 08:30:55;;;;;;;;;;;;;;;25.12;49.82;101561.34;5215920;28;19920;-69
2023/06/26 08:33:26;;;;;;;;;;;;;;;25.36;50.68;101567.88;5218072;28;19922;-69
2023/06/26 08:35:58;;;;;;;;;;;;;;;25.57;50.11;101569.50;5215368;28;19920;-69
2023/06/26 08:38:29;;;;;;;;;;;;;;;25.69;49.66;101565.09;5217763;28;19921;-69
2023/06/26 08:41:00;;;;;;;;;;;;;;;25.89;50.56;101564.22;5214332;28;20450;-69
2023/06/26 08:43:31;;;;;;;;;;;;;;;26.08;48.43;101557.09;5214901;28;19983;-69
2023/06/26 08:46:03;;;;;;;;;;;;;;;25.97;46.50;101558.59;5195779;28;20327;-69
2023/06/26 08:48:36;;;;;;;;;;;;;;;25.91;47.95;101570.19;5217382;28;19996;-69
2023/06/26 08:51:09;;;;;;;;;;;;;;;25.92;48.22;101569.97;5220056;28;19913;-69
2023/06/26 08:53:57;;;;;;;;;;;;;;;25.91;49.09;101580.91;5209811;28;19917;-70
2023/06/26 08:56:32;;;;;;;;;;;;;;;25.85;48.09;101582.59;5219579;28;19917;-69
2023/06/26 08:59:04;;;;;;;;;;;;;;;25.98;47.20;101587.06;5216262;28;19913;-69
2023/06/26 09:01:35;;;;;;;;;;;;;;;26.00;44.37;101594.94;5215480;28;19948;-70
2023/06/26 09:04:06;;;;;;;;;;;;;;;26.03;43.76;101589.97;5223959;28;19910;-70
2023/06/26 09:06:39;;;;;;;;;;;;;;;26.14;43.54;101585.78;5213764;28;20015;-67
2023/06/26 09:09:10;;;;;;;;;;;;;;;26.26;43.09;101591.28;5210852;28;20339;-68
2023/06/26 09:11:41;;;;;;;;;;;;;;;26.38;43.46;101601.13;5208146;28;19917;-69
2023/06/26 09:14:13;;;;;;;;;;;;;;;26.55;43.06;101590.69;5216663;28;19929;-68
2023/06/26 09:16:45;;;;;;;;;;;;;;;26.52;43.07;101596.53;5222684;28;19958;-69
2023/06/26 09:19:16;;;;;;;;;;;;;;;26.57;43.85;101598.53;5219879;28;20374;-67
2023/06/26 09:21:49;;;;;;;;;;;;;;;26.74;44.78;101599.63;5219847;28;20011;-69
2023/06/26 09:24:21;;;;;;;;;;;;;;;26.85;43.77;101601.63;5212356;28;20153;-69
2023/06/26 09:26:52;;;;;;;;;;;;;;;26.89;42.58;101594.75;5213969;28;19909;-69
2023/06/26 09:29:24;;;;;;;;;;;;;;;27.02;43.66;101604.59;5219679;28;19917;-69
2023/06/26 09:31:56;;;;;;;;;;;;;;;27.15;42.48;101604.47;5215009;28;19913;-67
2023/06/26 09:34:30;;;;;;;;;;;;;;;27.20;40.07;101606.53;5214007;28;19926;-69
2023/06/26 09:37:03;;;;;;;;;;;;;;;27.25;39.83;101613.94;5208758;28;20278;-67
2023/06/26 09:39:34;;;;;;;;;;;;;;;27.36;41.34;101632.84;5222762;28;19982;-69
2023/06/26 09:42:06;;;;;;;;;;;;;;;27.50;40.05;101636.22;5225071;28;20318;-68
2023/06/26 09:44:43;;;;;;;;;;;;;;;27.57;38.91;101631.56;5221856;28;20550;-69
2023/06/26 09:47:18;;;;;;;;;;;;;;;27.65;39.05;101633.16;5221186;28;19920;-68
2023/06/26 09:49:50;;;;;;;;;;;;;;;27.54;36.22;101653.59;5221044;28;19936;-66
2023/06/26 09:52:21;;;;;;;;;;;;;;;27.47;37.14;101650.13;5218155;28;20381;-69
2023/06/26 09:55:06;;;;;;;;;;;;;;;27.44;39.32;101647.06;5216894;28;19912;-69
2023/06/26 09:57:38;;;;;;;;;;;;;;;27.42;39.18;101645.41;5222265;28;20389;-68
2023/06/26 10:00:10;;;;;;;;;;;;;;;27.38;39.65;101633.44;5220133;28;19912;-69
2023/06/26 10:02:41;;;;;;;;;;;;;;;27.27;37.89;101634.16;5217549;28;19926;-67
2023/06/26 10:05:12;;;;;;;;;;;;;;;27.37;39.10;101642.56;5221734;28;19928;-69
2023/06/26 10:07:45;;;;;;;;;;;;;;;27.51;35.05;101653.22;5218050;28;19939;-68
2023/06/26 10:10:16;;;;;;;;;;;;;;;27.58;34.99;101662.03;5221173;28;19952;-69
2023/06/26 10:12:49;;;;;;;;;;;;;;;27.63;35.18;101659.50;5220776;28;20190;-66
2023/06/26 10:15:22;;;;;;;;;;;;;;;27.73;35.33;101656.25;5212225;28;20007;-68
2023/06/26 10:17:55;;;;;;;;;;;;;;;27.87;34.75;101655.09;5218669;28;20012;-68
2023/06/26 10:20:27;;;;;;;;;;;;;;;27.84;35.02;101653.69;5217894;28;20702;-68
2023/06/26 10:23:00;;;;;;;;;;;;;;;27.81;34.80;101656.84;5206638;28;20633;-66
2023/06/26 10:25:31;;;;;;;;;;;;;;;27.92;35.55;101663.34;5220227;28;19913;-69
2023/06/26 10:28:03;;;;;;;;;;;;;;;28.01;35.02;101669.22;5225421;28;19920;-67
2023/06/26 10:30:35;;;;;;;;;;;;;;;28.20;34.83;101670.03;5216389;28;20002;-69
2023/06/26 10:33:07;;;;;;;;;;;;;;;28.00;34.34;101671.13;5222174;28;20312;-68
2023/06/26 10:35:44;;;;;;;;;;;;;;;27.81;35.04;101662.22;5218853;28;19910;-68
2023/06/26 10:38:15;;;;;;;;;;;;;;;27.71;34.74;101672.66;5217414;28;19917;-68
2023/06/26 10:40:48;;;;;;;;;;;;;;;27.55;34.88;101675.94;5214799;28;19913;-67
2023/06/26 10:43:19;;;;;;;;;;;;;;;27.48;35.27;101673.31;5212262;28;19909;-66
2023/06/26 10:45:55;;;;;;;;;;;;;;;27.46;32.93;101686.16;5218954;28;19928;-69
2023/06/26 10:48:28;;;;;;;;;;;;;;;27.46;32.94;101686.16;5213123;28;19950;-67
2023/06/26 10:51:13;;;;;;;;;;;;;;;27.41;32.17;101686.81;5215301;28;19917;-68
2023/06/26 10:53:50;;;;;;;;;;;;;;;27.41;33.90;101688.69;5215723;28;19921;-68
2023/06/26 10:56:21;;;;;;;;;;;;;;;27.44;33.70;101682.06;5222051;28;19917;-69
2023/06/26 10:58:52;;;;;;;;;;;;;;;27.29;33.44;101677.81;5220886;28;19928;-68
2023/06/26 11:01:23;;;;;;;;;;;;;;;27.35;34.42;101684.19;5224676;28;20409;-68
2023/06/26 11:03:57;;;;;;;;;;;;;;;27.30;33.51;101690.22;5215572;28;19957;-68
2023/06/26 11:06:29;;;;;;;;;;;;;;;27.40;33.94;101706.72;5219638;28;19924;-67
2023/06/26 11:09:11;;;;;;;;;;;;;;;27.53;33.37;101694.16;5222972;28;19920;-68
2023/06/26 11:11:51;;;;;;;;;;;;;;;27.53;33.90;101694.16;5213054;28;19924;-68
2023/06/26 11:14:23;;;;;;;;;;;;;;;27.44;32.74;101699.00;5213984;28;19932;-69
2023/06/26 11:16:55;;;;;;;;;;;;;;;27.66;33.05;101696.72;5219369;28;19917;-69
2023/06/26 11:19:31;;;;;;;;;;;;;;;27.72;32.20;101701.22;5209089;28;19917;-68
2023/06/26 11:22:04;;;;;;;;;;;;;;;27.75;31.88;101700.81;5214992;28;20362;-68
2023/06/26 11:24:35;;;;;;;;;;;;;;;27.60;32.16;101698.44;5224061;28;19924;-68
2023/06/26 11:27:07;;;;;;;;;;;;;;;27.82;32.27;101698.03;5218745;28;20402;-67
2023/06/26 11:29:47;;;;;;;;;;;;;;;27.97;32.63;101706.56;5219078;28;20496;-69
2023/06/26 11:32:18;;;;;;;;;;;;;;;28.18;32.62;101712.53;5216768;28;19917;-69
2023/06/26 11:34:49;;;;;;;;;;;;;;;28.20;31.39;101721.22;5220606;28;20278;-68
2023/06/26 11:37:21;;;;;;;;;;;;;;;28.11;32.42;101715.34;5210145;28;19921;-69
2023/06/26 11:39:52;;;;;;;;;;;;;;;27.88;32.77;101722.22;5212814;28;19913;-68
2023/06/26 11:42:25;;;;;;;;;;;;;;;27.78;33.27;101734.53;5219389;28;20000;-68
2023/06/26 11:44:56;;;;;;;;;;;;;;;27.56;33.36;101729.53;5218106;28;19913;-68
2023/06/26 11:47:27;;;;;;;;;;;;;;;27.57;33.69;101739.25;5211465;28;19917;-68
2023/06/26 11:49:58;;;;;;;;;;;;;;;27.45;32.48;101748.28;5214483;28;20054;-69
2023/06/26 11:52:32;;;;;;;;;;;;;;;27.58;33.81;101742.78;5216241;28;19960;-69
2023/06/26 11:55:03;;;;;;;;;;;;;;;27.68;33.26;101753.03;5218190;28;20378;-69
2023/06/26 11:57:34;;;;;;;;;;;;;;;27.70;32.20;101761.72;5217615;28;20007;-68
2023/06/26 12:00:13;;;;;;;;;;;;;;;27.72;31.99;101755.06;5216191;28;19917;-67
2023/06/26 12:02:45;;;;;;;;;;;;;;;27.84;32.60;101758.72;5209629;28;19917;-68
2023/06/26 12:05:16;;;;;;;;;;;;;;;27.86;31.31;101758.47;5217713;28;20423;-68
2023/06/26 12:07:48;;;;;;;;;;;;;;;27.88;32.00;101749.16;5215489;28;19935;-69
2023/06/26 12:10:19;;;;;;;;;;;;;;;27.97;32.99;101754.25;5216358;28;19957;-68
2023/06/26 12:12:51;;;;;;;;;;;;;;;27.99;32.75;101761.03;5217770;28;20385;-69
2023/06/26 12:15:22;;;;;;;;;;;;;;;27.93;33.11;101764.63;5211531;28;19913;-69
2023/06/26 12:17:53;;;;;;;;;;;;;;;28.05;33.49;101762.03;5218286;28;19917;-68
2023/06/26 12:20:25;;;;;;;;;;;;;;;28.28;32.86;101761.34;5214569;28;20367;-67
2023/06/26 12:22:56;;;;;;;;;;;;;;;28.47;32.96;101775.66;5216245;28;19956;-69
2023/06/26 12:25:28;;;;;;;;;;;;;;;28.54;33.64;101761.03;5217574;28;19982;-69
2023/06/26 12:27:59;;;;;;;;;;;;;;;28.48;32.84;101758.41;5219448;28;19913;-69
2023/06/26 12:30:30;;;;;;;;;;;;;;;28.16;32.62;101771.22;5218089;28;19944;-69
2023/06/26 12:33:01;;;;;;;;;;;;;;;28.10;34.39;101767.53;5220376;28;19917;-66
2023/06/26 12:35:33;;;;;;;;;;;;;;;28.20;33.61;101775.94;5218683;28;19912;-69
2023/06/26 12:38:09;;;;;;;;;;;;;;;28.17;32.25;101772.88;5219383;28;20428;-67
2023/06/26 12:40:46;;;;;;;;;;;;;;;28.27;32.34;101768.59;5217276;28;19924;-68
2023/06/26 12:43:25;;;;;;;;;;;;;;;28.40;32.18;101770.34;5219129;28;19924;-68
2023/06/26 12:45:56;;;;;;;;;;;;;;;28.51;32.77;101769.56;5221798;28;20676;-68
2023/06/26 12:48:43;;;;;;;;;;;;;;;28.49;29.63;101774.38;5215829;28;19939;-69
2023/06/26 12:51:15;;;;;;;;;;;;;;;28.42;29.22;101779.03;5215499;28;19913;-68
2023/06/26 12:53:46;;;;;;;;;;;;;;;28.54;29.49;101777.22;5217651;28;19958;-68
2023/06/26 12:56:19;;;;;;;;;;;;;;;28.66;30.13;101771.06;5214960;28;20286;-68
2023/06/26 12:58:51;;;;;;;;;;;;;;;28.69;31.98;101778.69;5223954;28;19916;-68
2023/06/26 13:01:24;;;;;;;;;;;;;;;28.61;32.14;101777.13;5215459;28;19986;-67